createdAt,value
2023-01-12T00:01:27.587Z,36.28
2023-01-12T00:04:14.053Z,35.15
2023-01-12T00:07:00.188Z,40.95
2023-01-12T00:09:45.470Z,44.95
2023-01-12T00:12:30.968Z,37.08
2023-01-12T00:15:16.293Z,41.25
2023-01-12T00:18:01.617Z,40.53
2023-01-12T00:20:50.309Z,41.33
2023-01-12T00:23:35.768Z,48.13
2023-01-12T00:26:21.198Z,49.42
2023-01-12T00:29:06.494Z,48.38
2023-01-12T00:31:53.474Z,43.92
2023-01-12T00:34:38.913Z,51.10
2023-01-12T00:37:26.029Z,41.58
2023-01-12T00:40:11.897Z,41.90
2023-01-12T00:43:15.758Z,42.22
2023-01-12T00:46:01.111Z,40.70
2023-01-12T00:48:46.736Z,39.97
2023-01-12T00:51:33.478Z,38.00
2023-01-12T00:54:18.732Z,37.67
2023-01-12T00:57:06.377Z,39.05
2023-01-12T00:59:55.085Z,33.30
2023-01-12T01:02:40.497Z,32.05
2023-01-12T01:05:26.672Z,32.60
2023-01-12T01:08:12.752Z,32.33
2023-01-12T01:11:06.402Z,40.42
2023-01-12T01:13:53.885Z,35.70
2023-01-12T01:16:38.941Z,30.17
2023-01-12T01:19:24.373Z,35.75
2023-01-12T01:22:11.751Z,40.90
2023-01-12T01:24:57.451Z,30.48
2023-01-12T01:27:43.209Z,28.95
2023-01-12T01:30:28.422Z,41.08
2023-01-12T01:33:14.756Z,39.67
2023-01-12T01:36:00.245Z,35.47
2023-01-12T01:38:47.124Z,36.92
2023-01-12T01:41:33.433Z,41.05
2023-01-12T01:44:30.807Z,39.47
2023-01-12T01:47:27.014Z,23.77
2023-01-12T01:50:20.570Z,31.83
2023-01-12T01:53:12.478Z,28.75
2023-01-12T01:56:01.893Z,27.83
2023-01-12T01:58:51.972Z,28.58
2023-01-12T02:01:39.092Z,35.17
2023-01-12T02:04:26.790Z,27.62
2023-01-12T02:07:12.678Z,32.72
2023-01-12T02:10:00.791Z,30.88
2023-01-12T02:13:04.988Z,34.55
2023-01-12T02:16:23.197Z,33.22
2023-01-12T02:19:24.454Z,32.55
2023-01-12T02:22:33.634Z,31.87
2023-01-12T02:25:43.919Z,40.90
2023-01-12T02:28:45.972Z,34.58
2023-01-12T02:31:47.742Z,34.28
2023-01-12T02:34:42.039Z,33.72
2023-01-12T02:37:45.895Z,38.53
2023-01-12T02:40:41.745Z,36.47
2023-01-12T02:43:30.745Z,37.28
2023-01-12T02:46:28.113Z,34.60
2023-01-12T02:49:18.183Z,33.38
2023-01-12T02:52:09.852Z,28.45
2023-01-12T02:54:55.332Z,33.80
2023-01-12T02:57:41.217Z,21.50
2023-01-12T03:00:27.086Z,23.70
2023-01-12T03:03:12.733Z,22.27
2023-01-12T03:05:59.835Z,20.37
2023-01-12T03:08:47.299Z,20.65
2023-01-12T03:11:32.972Z,27.83
2023-01-12T03:14:18.553Z,20.85
2023-01-12T03:17:07.604Z,21.87
2023-01-12T03:19:54.983Z,21.77
2023-01-12T03:22:42.180Z,23.45
2023-01-12T03:25:28.613Z,20.75
2023-01-12T03:28:15.032Z,16.67
2023-01-12T03:31:12.035Z,20.70
2023-01-12T03:33:59.093Z,20.52
2023-01-12T03:36:56.411Z,22.42
2023-01-12T03:40:01.247Z,22.10
2023-01-12T03:42:52.895Z,21.65
2023-01-12T03:45:39.604Z,21.37
2023-01-12T03:48:27.616Z,22.50
2023-01-12T03:51:42.576Z,29.30
2023-01-12T03:54:28.904Z,28.00
2023-01-12T03:57:14.403Z,29.00
2023-01-12T04:00:00.392Z,33.95
2023-01-12T04:02:45.661Z,32.35
2023-01-12T04:05:30.601Z,32.85
2023-01-12T04:08:16.527Z,33.97
2023-01-12T04:11:22.086Z,31.23
2023-01-12T04:14:07.511Z,31.80
2023-01-12T04:16:53.050Z,31.85
2023-01-12T04:19:38.472Z,34.95
2023-01-12T04:22:42.315Z,41.80
2023-01-12T04:25:27.708Z,31.70
2023-01-12T04:28:13.263Z,29.00
2023-01-12T04:30:58.320Z,34.72
2023-01-12T04:33:44.188Z,33.67
2023-01-12T04:36:29.554Z,32.55
2023-01-12T04:39:15.014Z,30.77
2023-01-12T04:42:00.486Z,22.52
2023-01-12T04:44:45.968Z,26.35
2023-01-12T04:47:31.516Z,26.52
2023-01-12T04:50:16.698Z,34.70
2023-01-12T04:53:03.843Z,27.20
2023-01-12T04:55:50.085Z,31.65
2023-01-12T04:58:35.764Z,32.63
2023-01-12T05:01:22.444Z,25.80
2023-01-12T05:04:08.904Z,26.95
2023-01-12T05:06:53.949Z,27.85
2023-01-12T05:09:59.070Z,25.52
2023-01-12T05:12:44.480Z,24.50
2023-01-12T05:15:29.511Z,26.48
2023-01-12T05:18:15.581Z,23.40
2023-01-12T05:21:00.826Z,29.85
2023-01-12T05:23:46.130Z,30.40
2023-01-12T05:26:31.457Z,38.70
2023-01-12T05:29:16.872Z,33.65
2023-01-12T05:32:02.326Z,34.67
2023-01-12T05:34:47.720Z,34.20
2023-01-12T05:37:33.666Z,34.30
2023-01-12T05:40:18.702Z,40.97
2023-01-12T05:43:22.561Z,35.80
2023-01-12T05:46:08.022Z,38.03
2023-01-12T05:48:55.495Z,40.58
2023-01-12T05:51:41.145Z,37.13
2023-01-12T05:54:27.462Z,33.50
2023-01-12T05:57:12.861Z,39.03
2023-01-12T05:59:59.542Z,28.65
2023-01-12T06:02:44.979Z,30.05
2023-01-12T06:05:30.354Z,28.95
2023-01-12T06:08:16.961Z,29.48
2023-01-12T06:11:03.459Z,33.90
2023-01-12T06:13:57.936Z,27.55
2023-01-12T06:16:44.114Z,31.95
2023-01-12T06:19:29.494Z,35.15
2023-01-12T06:22:15.286Z,39.20
2023-01-12T06:25:00.716Z,39.08
2023-01-12T06:27:46.060Z,47.38
2023-01-12T06:30:33.270Z,41.97
2023-01-12T06:33:18.585Z,35.58
2023-01-12T06:36:04.694Z,38.85
2023-01-12T06:38:50.126Z,34.40
2023-01-12T06:41:57.187Z,40.58
2023-01-12T06:44:42.825Z,41.00
2023-01-12T06:47:28.494Z,44.83
2023-01-12T06:50:14.529Z,46.28
2023-01-12T06:53:01.102Z,54.60
2023-01-12T06:55:50.892Z,46.42
2023-01-12T06:58:36.422Z,42.90
2023-01-12T07:01:23.076Z,39.30
2023-01-12T07:04:13.298Z,39.88
2023-01-12T07:07:01.038Z,39.38
2023-01-12T07:09:46.811Z,42.17
2023-01-12T07:12:39.716Z,40.25
2023-01-12T07:15:25.985Z,49.42
2023-01-12T07:18:12.376Z,37.08
2023-01-12T07:20:58.095Z,36.75
2023-01-12T07:23:44.270Z,30.48
2023-01-12T07:26:29.475Z,34.85
2023-01-12T07:29:16.243Z,30.40
2023-01-12T07:32:03.359Z,29.92
2023-01-12T07:34:51.841Z,29.10
2023-01-12T07:37:37.382Z,44.38
2023-01-12T07:40:22.688Z,51.60
2023-01-12T07:43:09.072Z,60.67
2023-01-12T07:46:00.658Z,52.92
2023-01-12T07:48:48.019Z,51.63
2023-01-12T07:51:35.272Z,50.30
2023-01-12T07:54:23.625Z,42.50
2023-01-12T07:57:10.918Z,48.33
2023-01-12T07:59:55.932Z,37.78
2023-01-12T08:02:41.979Z,35.97
2023-01-12T08:05:27.554Z,37.53
2023-01-12T08:08:13.599Z,38.30
2023-01-12T08:11:03.746Z,33.85
2023-01-12T08:13:49.312Z,37.40
2023-01-12T08:16:40.878Z,27.75
2023-01-12T08:19:31.286Z,34.05
2023-01-12T08:22:22.354Z,25.83
2023-01-12T08:25:11.366Z,26.58
2023-01-12T08:28:00.736Z,22.13
2023-01-12T08:30:49.265Z,22.80
2023-01-12T08:33:34.926Z,30.10
2023-01-12T08:36:21.898Z,23.80
2023-01-12T08:39:07.415Z,22.48
2023-01-12T08:41:52.797Z,21.73
2023-01-12T08:44:40.739Z,21.90
2023-01-12T08:47:28.322Z,26.45
2023-01-12T08:50:14.616Z,23.35
2023-01-12T08:53:00.203Z,26.30
2023-01-12T08:55:55.833Z,25.35
2023-01-12T08:58:43.921Z,21.15
2023-01-12T09:01:29.595Z,20.52
2023-01-12T09:04:14.947Z,20.92
2023-01-12T09:07:00.589Z,27.00
2023-01-12T09:09:49.173Z,18.12
2023-01-12T09:12:35.871Z,17.77
2023-01-12T09:15:22.370Z,29.83
2023-01-12T09:18:08.695Z,18.02
2023-01-12T09:21:01.727Z,18.65
2023-01-12T09:23:49.357Z,31.30
2023-01-12T09:26:43.522Z,30.85
2023-01-12T09:29:31.559Z,26.62
2023-01-12T09:32:26.044Z,22.83
2023-01-12T09:35:15.081Z,23.05
2023-01-12T09:38:00.189Z,20.10
2023-01-12T09:40:46.061Z,18.33
2023-01-12T09:43:50.401Z,19.30
2023-01-12T09:46:56.512Z,19.45
2023-01-12T09:49:47.301Z,19.70
2023-01-12T09:52:57.386Z,21.62
2023-01-12T09:56:03.073Z,16.42
2023-01-12T09:59:44.230Z,15.18
2023-01-12T10:02:35.574Z,20.60
2023-01-12T10:05:44.692Z,17.87
2023-01-12T10:08:36.438Z,14.45
2023-01-12T10:11:39.135Z,20.30
2023-01-12T10:14:33.385Z,16.52
2023-01-12T10:17:51.385Z,19.55
2023-01-12T10:20:42.635Z,27.17
2023-01-12T10:23:28.423Z,17.17
2023-01-12T10:26:23.203Z,19.00
2023-01-12T10:29:10.709Z,17.30
2023-01-12T10:31:55.916Z,19.23
2023-01-12T10:34:54.234Z,14.87
2023-01-12T10:37:56.882Z,13.02
2023-01-12T10:40:44.608Z,13.68
2023-01-12T10:43:34.575Z,15.60
2023-01-12T10:46:24.385Z,13.02
2023-01-12T10:49:21.509Z,9.98
2023-01-12T10:52:11.299Z,12.50
2023-01-12T10:54:58.938Z,12.80
2023-01-12T10:57:46.244Z,9.60
2023-01-12T11:00:32.120Z,11.00
2023-01-12T11:03:33.995Z,8.90
2023-01-12T11:06:30.906Z,5.82
2023-01-12T11:09:28.988Z,6.47
2023-01-12T11:12:23.764Z,6.00
2023-01-12T11:15:12.266Z,6.93
2023-01-12T11:17:57.479Z,5.03
2023-01-12T11:20:48.020Z,4.40
2023-01-12T11:23:48.395Z,8.80
2023-01-12T11:26:37.086Z,5.78
2023-01-12T11:29:45.410Z,7.93
2023-01-12T11:32:37.070Z,8.13
2023-01-12T11:35:50.136Z,7.30
2023-01-12T11:38:44.567Z,9.18
2023-01-12T11:42:10.477Z,9.63
2023-01-12T11:45:28.445Z,15.48
2023-01-12T11:48:21.654Z,9.20
2023-01-12T11:51:08.672Z,13.60
2023-01-12T11:53:54.437Z,9.73
2023-01-12T11:56:58.873Z,9.30
2023-01-12T11:59:56.397Z,8.68
2023-01-12T12:02:46.379Z,11.82
2023-01-12T12:05:47.523Z,11.18
2023-01-12T12:09:04.347Z,13.48
2023-01-12T12:12:27.645Z,21.33
2023-01-12T12:15:22.964Z,14.38
2023-01-12T12:18:26.701Z,23.08
2023-01-12T12:21:30.480Z,18.98
2023-01-12T12:24:21.789Z,24.37
2023-01-12T12:27:21.435Z,15.32
2023-01-12T12:30:22.270Z,12.18
2023-01-12T12:33:45.363Z,21.60
2023-01-12T12:36:51.539Z,10.68
2023-01-12T12:39:42.758Z,13.30
2023-01-12T12:43:03.367Z,13.10
2023-01-12T12:45:56.895Z,15.80
2023-01-12T12:49:05.365Z,16.37
2023-01-12T12:51:53.068Z,19.10
2023-01-12T12:54:39.988Z,19.25
2023-01-12T12:57:25.367Z,30.77
2023-01-12T13:00:30.369Z,15.98
2023-01-12T13:03:40.443Z,18.23
2023-01-12T13:06:38.541Z,14.93
2023-01-12T13:09:25.279Z,16.17
2023-01-12T13:12:33.916Z,29.77
2023-01-12T13:15:21.946Z,26.87
2023-01-12T13:18:45.986Z,16.25
2023-01-12T13:21:57.221Z,19.05
2023-01-12T13:24:44.658Z,15.85
2023-01-12T13:27:49.019Z,14.40
2023-01-12T13:30:35.024Z,21.90
2023-01-12T13:33:28.481Z,11.57
2023-01-12T13:36:30.496Z,13.13
2023-01-12T13:39:16.343Z,20.70
2023-01-12T13:42:20.526Z,13.55
2023-01-12T13:45:11.539Z,15.73
2023-01-12T13:47:57.100Z,21.80
2023-01-12T13:50:48.050Z,14.10
2023-01-12T13:53:33.614Z,19.30
2023-01-12T13:56:24.468Z,9.60
2023-01-12T13:59:18.253Z,22.58
2023-01-12T14:02:04.079Z,13.98
2023-01-12T14:04:57.521Z,9.80
2023-01-12T14:08:24.376Z,25.43
2023-01-12T14:11:20.811Z,31.58
2023-01-12T14:14:58.912Z,10.50
2023-01-12T14:17:53.594Z,14.77
2023-01-12T14:20:58.574Z,13.20
2023-01-12T14:23:44.145Z,19.87
2023-01-12T14:26:30.537Z,16.40
2023-01-12T14:29:15.831Z,22.65
2023-01-12T14:32:01.340Z,26.02
2023-01-12T14:34:52.395Z,15.35
2023-01-12T14:37:37.375Z,26.37
2023-01-12T14:40:27.986Z,15.50
2023-01-12T14:43:33.214Z,15.05
2023-01-12T14:46:25.318Z,12.27
2023-01-12T14:49:22.752Z,13.85
2023-01-12T14:52:16.924Z,20.73
2023-01-12T14:55:18.708Z,23.75
2023-01-12T14:58:05.180Z,23.00
2023-01-12T15:00:50.753Z,19.62
2023-01-12T15:03:43.712Z,21.08
2023-01-12T15:06:29.355Z,19.93
2023-01-12T15:09:27.643Z,30.65
2023-01-12T15:12:25.607Z,28.25
2023-01-12T15:15:15.079Z,18.02
2023-01-12T15:18:18.779Z,21.85
2023-01-12T15:21:22.875Z,36.05
2023-01-12T15:24:53.566Z,32.65
2023-01-12T15:27:40.179Z,28.48
2023-01-12T15:30:25.161Z,28.87
2023-01-12T15:33:10.600Z,37.45
2023-01-12T15:35:58.641Z,28.27
2023-01-12T15:38:44.536Z,38.78
2023-01-12T15:41:49.714Z,24.05
2023-01-12T15:44:34.832Z,28.80
2023-01-12T15:47:21.193Z,25.58
2023-01-12T15:50:07.197Z,23.65
2023-01-12T15:52:52.781Z,24.45
2023-01-12T15:55:39.530Z,24.77
2023-01-12T15:58:24.886Z,28.33
2023-01-12T16:01:16.357Z,32.72
2023-01-12T16:04:39.807Z,24.85
2023-01-12T16:07:06.943Z,27.10
2023-01-12T16:09:52.384Z,35.78
2023-01-12T16:12:37.904Z,27.75
2023-01-12T16:15:24.628Z,30.10
2023-01-12T16:18:10.221Z,28.48
2023-01-12T16:20:59.359Z,25.37
2023-01-12T16:23:45.910Z,25.08
2023-01-12T16:26:31.441Z,28.30
2023-01-12T16:29:17.565Z,32.83
2023-01-12T16:32:03.383Z,30.83
2023-01-12T16:34:48.631Z,27.25
2023-01-12T16:37:35.352Z,27.65
2023-01-12T16:40:20.843Z,33.83
2023-01-12T16:43:06.235Z,32.15
2023-01-12T16:45:52.073Z,32.90
2023-01-12T16:48:39.404Z,31.95
2023-01-12T16:51:25.763Z,33.97
2023-01-12T16:54:10.698Z,33.08
2023-01-12T16:56:56.177Z,39.60
2023-01-12T16:59:41.921Z,56.92
2023-01-12T17:02:28.884Z,64.03
2023-01-12T17:05:15.206Z,36.20
2023-01-12T17:08:00.431Z,39.25
2023-01-12T17:10:45.765Z,32.88
2023-01-12T17:13:31.163Z,37.90
2023-01-12T17:16:16.564Z,34.05
2023-01-12T17:19:02.316Z,33.33
2023-01-12T17:21:48.071Z,41.10
2023-01-12T17:24:36.098Z,52.53
2023-01-12T17:27:21.868Z,53.60
2023-01-12T17:30:07.825Z,69.45
2023-01-12T17:32:53.217Z,59.47
2023-01-12T17:35:38.471Z,73.15
2023-01-12T17:38:23.787Z,69.35
2023-01-12T17:41:34.171Z,65.03
2023-01-12T17:44:20.388Z,77.78
2023-01-12T17:47:05.786Z,65.85
2023-01-12T17:49:51.352Z,69.57
2023-01-12T17:52:36.330Z,67.82
2023-01-12T17:55:22.195Z,66.20
2023-01-12T17:58:07.745Z,66.45
2023-01-12T18:00:52.889Z,73.62
2023-01-12T18:03:38.364Z,64.18
2023-01-12T18:06:27.386Z,72.53
2023-01-12T18:09:12.711Z,59.97
2023-01-12T18:11:58.159Z,64.60
2023-01-12T18:14:43.656Z,76.18
2023-01-12T18:17:30.098Z,75.47
2023-01-12T18:20:15.387Z,77.93
2023-01-12T18:23:00.699Z,79.15
2023-01-12T18:25:46.142Z,73.65
2023-01-12T18:28:31.441Z,51.95
2023-01-12T18:31:19.455Z,71.95
2023-01-12T18:34:07.734Z,68.53
2023-01-12T18:36:53.106Z,64.43
2023-01-12T18:39:41.351Z,64.85
2023-01-12T18:42:45.086Z,76.00
2023-01-12T18:48:23.723Z,65.57
2023-01-12T18:51:27.582Z,72.53
2023-01-12T18:54:12.791Z,75.72
2023-01-12T18:56:59.315Z,75.28
2023-01-12T18:59:50.390Z,92.10
2023-01-12T19:02:35.469Z,91.53
2023-01-12T19:05:25.462Z,86.45
2023-01-12T19:08:29.712Z,79.07
2023-01-12T19:14:19.580Z,87.05
2023-01-12T19:17:23.464Z,75.93
2023-01-12T19:20:14.423Z,81.65
2023-01-12T19:23:18.416Z,94.82
2023-01-12T19:26:22.315Z,92.03
2023-01-12T19:29:07.688Z,94.43
2023-01-12T19:31:53.124Z,80.93
2023-01-12T19:34:38.354Z,90.62
2023-01-12T19:37:23.727Z,49.83
2023-01-12T19:40:25.726Z,90.25
2023-01-12T19:43:19.362Z,87.12
2023-01-12T19:46:04.741Z,87.18
2023-01-12T19:48:50.123Z,97.95
2023-01-12T19:51:35.609Z,91.60
2023-01-12T19:54:21.139Z,95.05
2023-01-12T19:57:06.458Z,87.43
2023-01-12T19:59:51.727Z,90.00
2023-01-12T20:02:36.907Z,85.45
2023-01-12T20:05:22.844Z,81.87
2023-01-12T20:08:08.868Z,83.62
2023-01-12T20:10:58.997Z,77.37
2023-01-12T20:13:44.452Z,72.35
2023-01-12T20:16:30.107Z,86.12
2023-01-12T20:19:15.473Z,77.68
2023-01-12T20:22:01.596Z,81.15
2023-01-12T20:24:47.634Z,85.90
2023-01-12T20:27:34.192Z,97.00
2023-01-12T20:30:36.580Z,92.50
2023-01-12T20:33:24.507Z,96.30
2023-01-12T20:36:11.767Z,87.97
2023-01-12T20:38:58.497Z,81.70
2023-01-12T20:41:43.775Z,93.70
2023-01-12T20:44:29.293Z,89.25
2023-01-12T20:47:19.074Z,99.82
2023-01-12T20:50:07.655Z,80.40
2023-01-12T20:52:56.981Z,75.05
2023-01-12T20:55:44.346Z,76.80
2023-01-12T20:58:29.983Z,83.65
2023-01-12T21:01:15.841Z,85.95
2023-01-12T21:04:01.326Z,87.72
2023-01-12T21:06:46.742Z,98.03
2023-01-12T21:09:32.069Z,106.32
2023-01-12T21:12:17.559Z,99.37
2023-01-12T21:15:03.623Z,100.05
2023-01-12T21:17:49.522Z,84.20
2023-01-12T21:20:34.703Z,101.45
2023-01-12T21:23:20.533Z,94.28
2023-01-12T21:26:08.844Z,103.90
2023-01-12T21:28:53.947Z,99.30
2023-01-12T21:31:39.235Z,102.60
2023-01-12T21:34:24.408Z,102.85
2023-01-12T21:37:10.089Z,88.47
2023-01-12T21:39:55.496Z,72.68
2023-01-12T21:42:59.536Z,79.80
2023-01-12T21:48:35.389Z,74.93
2023-01-12T21:51:23.773Z,75.45
2023-01-12T21:54:09.449Z,65.95
2023-01-12T21:56:54.599Z,77.20
2023-01-12T21:59:39.716Z,63.30
2023-01-12T22:02:25.589Z,66.87
2023-01-12T22:05:11.312Z,64.03
2023-01-12T22:07:57.868Z,66.07
2023-01-12T22:10:43.414Z,93.97
2023-01-12T22:13:28.769Z,94.97
2023-01-12T22:16:15.787Z,118.78
2023-01-12T22:19:00.987Z,112.35
2023-01-12T22:21:46.408Z,88.93
2023-01-12T22:24:31.805Z,89.37
2023-01-12T22:27:17.837Z,75.25
2023-01-12T22:30:04.838Z,105.40
2023-01-12T22:32:55.412Z,89.43
2023-01-12T22:35:40.800Z,92.55
2023-01-12T22:38:25.972Z,80.22
2023-01-12T22:41:12.159Z,81.15
2023-01-12T22:43:57.150Z,91.03
2023-01-12T22:46:44.650Z,76.85
2023-01-12T22:49:30.063Z,86.37
2023-01-12T22:52:15.280Z,77.07
2023-01-12T22:55:00.807Z,73.93
2023-01-12T22:57:47.426Z,81.05
2023-01-12T23:00:32.705Z,83.15
2023-01-12T23:03:18.697Z,70.87
2023-01-12T23:06:12.084Z,107.15
2023-01-12T23:08:57.394Z,89.43
2023-01-12T23:11:42.751Z,66.72
2023-01-12T23:14:28.026Z,62.53
2023-01-12T23:17:12.967Z,72.75
2023-01-12T23:19:58.472Z,62.40
2023-01-12T23:22:43.603Z,67.05
2023-01-12T23:25:29.149Z,60.55
2023-01-12T23:28:14.992Z,58.42
2023-01-12T23:31:09.840Z,62.25
2023-01-12T23:33:57.015Z,61.05
2023-01-12T23:36:44.331Z,59.17
2023-01-12T23:39:29.897Z,60.30
2023-01-12T23:42:15.236Z,59.25
2023-01-12T23:45:01.064Z,57.20
2023-01-12T23:47:47.413Z,52.70
2023-01-12T23:50:44.407Z,51.88
2023-01-12T23:53:30.170Z,59.13
2023-01-12T23:56:16.785Z,59.20
2023-01-12T23:59:02.209Z,55.53
